Archival Weather

Tokyo Intl

Tokyo Intl, Japan (RJTT)

Report from: Friday, June 24, 2022 2:48 AM JST
Current time: Tuesday, August 16, 2022 5:03 PM JST

Current weather
Weather history
Weather forecast

Temperature23.0°C (73.4°F)
Dew point22.0°C (71.6°F)
Winds 12 kts (6.2 m/s, 13.8 mph) South (190°)
Visibility6.2 mi. (10 km)
Clouds Few clouds 400 ft. (122 m)
Scattered clouds 700 ft. (213 m)
Ceiling: Broken clouds 4,000 ft. (1,219 m)
Altimeter29.80 in.Hg (1009 mB)
Relative humidity94 %
Density altitude1,430 ft. (436 m)
Remarks Special weather observation
Flight conditions Visual Meteorological Conditions
Raw dataSPJP31 KWBC 231757 SPECI RJTT 231748Z 19012KT 9999 FEW004 SCT007 BKN040 23/22 Q1009 RMK 1ST004 4ST007 7CU040 A2980
An error has occurred. This application may no longer respond until reloaded. Reload 🗙